Language: 


Des rapports , des résumés tant et plus, au choix de chacun....


Données Historiques de Météogheer
 
Journalier Rapport pour Mai 21, 2018 Unitée:  Les deux    Impériale   Métrique
Suivant Jour »
Journalier Hebdomadaire Mensuel Annuel Sur mesure
  Actuel: Max: Min: Moyenne:
Température: 78.4 °F /  25.8 °C 78.4 °F /  25.8 °C 53.4 °F /  11.9 °C 63.3 °F /  17.4 °C
Point de rosée: 55.4 °F /  13.0 °C 57.2 °F /  14.0 °C 48.2 °F /  9.0 °C 52.2 °F /  11.2 °C
Humidité: 44% 84% 42% 68%
Vent: 3.8mph /  6.1km/h 11.2mph /  18.0km/h - 3.9mph /  6.2km/h
Rafales: 8.7mph /  14.0km/h 14.1mph /  22.7km/h - -
VentENE - - SSE
Pression: 29.9 in /  1011.1 hPa 30.1 in /  1018.2 hPa 29.9 in /  1011.1 hPa -
Pluie: 0 in /  0.0 mm      
Historical Graphs
 
 
Données tabulaires pour Mai 21, 2018
Heure Température Point de rosée Pression Vent Vent Rafales Humidité Pluie Taux (Horaire) Conditions
00:09 53.8 °F /  12.1 °C 48.2 °F /  9.0 °C 30.1in /  1018.2hPa North 3.6mph /  5.8km/h 6.3mph /  10.1km/h 80% 0in /  0.0mm
00:19 53.8 °F /  12.1 °C 48.2 °F /  9.0 °C 30.1in /  1018.2hPa North 3.6mph /  5.8km/h 5.4mph /  8.7km/h 79% 0in /  0.0mm
00:24 53.6 °F /  12.0 °C 48.2 °F /  9.0 °C 30.1in /  1018.2hPa North 2.9mph /  4.7km/h 5.6mph /  9.0km/h 79% 0in /  0.0mm
00:29 53.6 °F /  12.0 °C 48.2 °F /  9.0 °C 30.1in /  1018.2hPa Calm   5.6mph /  9.0km/h 80% 0in /  0.0mm
00:39 53.6 °F /  12.0 °C 48.2 °F /  9.0 °C 30.1in /  1018.2hPa North 5.6mph /  9.0km/h 5.6mph /  9.0km/h 80% 0in /  0.0mm
00:49 54 °F /  12.2 °C 48.2 °F /  9.0 °C 30.1in /  1018.2hPa NNE 6.5mph /  10.5km/h 7.4mph /  11.9km/h 81% 0in /  0.0mm
00:54 53.8 °F /  12.1 °C 48.2 °F /  9.0 °C 30in /  1016.8hPa North 4mph /  6.4km/h 7.2mph /  11.6km/h 81% 0in /  0.0mm
00:59 54 °F /  12.2 °C 48.2 °F /  9.0 °C 30in /  1016.8hPa NNE 4.3mph /  6.9km/h 6.9mph /  11.1km/h 81% 0in /  0.0mm
01:09 54 °F /  12.2 °C 48.2 °F /  9.0 °C 30.1in /  1018.2hPa NNE 5.6mph /  9.0km/h 5.8mph /  9.3km/h 81% 0in /  0.0mm
01:14 53.8 °F /  12.1 °C 48.2 °F /  9.0 °C 30.1in /  1018.2hPa NNE 2.5mph /  4.0km/h 6mph /  9.7km/h 81% 0in /  0.0mm
01:20 53.8 °F /  12.1 °C 48.2 °F /  9.0 °C 30.1in /  1018.2hPa NNW 3.8mph /  6.1km/h 6mph /  9.7km/h 81% 0in /  0.0mm
01:29 53.8 °F /  12.1 °C 48.2 °F /  9.0 °C 30.1in /  1018.2hPa North 3.1mph /  5.0km/h 5.6mph /  9.0km/h 82% 0in /  0.0mm
01:34 53.6 °F /  12.0 °C 48.2 °F /  9.0 °C 30.1in /  1018.2hPa North 5.8mph /  9.3km/h 5.8mph /  9.3km/h 82% 0in /  0.0mm
01:39 53.6 °F /  12.0 °C 48.2 °F /  9.0 °C 30in /  1016.8hPa North 3.1mph /  5.0km/h 5.8mph /  9.3km/h 82% 0in /  0.0mm
01:49 53.4 °F /  11.9 °C 48.2 °F /  9.0 °C 30in /  1016.8hPa North 2mph /  3.2km/h 4.9mph /  7.9km/h 82% 0in /  0.0mm
01:54 53.4 °F /  11.9 °C 48.2 °F /  9.0 °C 30in /  1016.8hPa NNE 2.7mph /  4.3km/h 5.4mph /  8.7km/h 82% 0in /  0.0mm
01:59 53.4 °F /  11.9 °C 48.2 °F /  9.0 °C 30in /  1016.8hPa NNE 3.6mph /  5.8km/h 5.4mph /  8.7km/h 82% 0in /  0.0mm
02:09 53.6 °F /  12.0 °C 48.2 °F /  9.0 °C 30in /  1016.8hPa Calm   4.7mph /  7.6km/h 82% 0in /  0.0mm
02:14 53.6 °F /  12.0 °C 48.2 °F /  9.0 °C 30in /  1016.8hPa Calm   4.3mph /  6.9km/h 82% 0in /  0.0mm
02:19 53.6 °F /  12.0 °C 48.2 °F /  9.0 °C 30in /  1016.8hPa North 2.7mph /  4.3km/h 4.3mph /  6.9km/h 82% 0in /  0.0mm
02:29 53.8 °F /  12.1 °C 48.2 °F /  9.0 °C 30in /  1016.1hPa Calm   2.9mph /  4.7km/h 82% 0in /  0.0mm
02:34 53.8 °F /  12.1 °C 48.2 °F /  9.0 °C 30in /  1016.1hPa Calm   3.6mph /  5.8km/h 82% 0in /  0.0mm
02:40 53.8 °F /  12.1 °C 48.2 °F /  9.0 °C 30in /  1016.1hPa Calm   3.6mph /  5.8km/h 83% 0in /  0.0mm
02:49 54 °F /  12.2 °C 48.2 °F /  9.0 °C 30in /  1016.1hPa North 3.6mph /  5.8km/h 5.4mph /  8.7km/h 83% 0in /  0.0mm
02:54 54 °F /  12.2 °C 48.2 °F /  9.0 °C 30in /  1016.8hPa North 1.3mph /  2.1km/h 6.3mph /  10.1km/h 83% 0in /  0.0mm
02:59 54.1 °F /  12.3 °C 50 °F /  10.0 °C 30in /  1016.8hPa Calm   6.3mph /  10.1km/h 83% 0in /  0.0mm
03:09 54.1 °F /  12.3 °C 50 °F /  10.0 °C 30in /  1016.8hPa North 4.7mph /  7.6km/h 5.8mph /  9.3km/h 83% 0in /  0.0mm
03:14 54.3 °F /  12.4 °C 50 °F /  10.0 °C 30in /  1016.8hPa NNE 3.8mph /  6.1km/h 5.8mph /  9.3km/h 83% 0in /  0.0mm
03:20 54.3 °F /  12.4 °C 50 °F /  10.0 °C 30in /  1016.8hPa North 3.1mph /  5.0km/h 6.5mph /  10.5km/h 83% 0in /  0.0mm
03:29 54.3 °F /  12.4 °C 50 °F /  10.0 °C 30in /  1016.8hPa North 4mph /  6.4km/h 5.6mph /  9.0km/h 83% 0in /  0.0mm
03:34 54.3 °F /  12.4 °C 50 °F /  10.0 °C 30in /  1016.8hPa NNW 2.5mph /  4.0km/h 4.9mph /  7.9km/h 84% 0in /  0.0mm
03:39 54.3 °F /  12.4 °C 50 °F /  10.0 °C 30in /  1016.8hPa North 3.6mph /  5.8km/h 5.4mph /  8.7km/h 83% 0in /  0.0mm
03:49 54.3 °F /  12.4 °C 50 °F /  10.0 °C 30in /  1016.8hPa North 2.7mph /  4.3km/h 4.3mph /  6.9km/h 83% 0in /  0.0mm
03:59 54.3 °F /  12.4 °C 50 °F /  10.0 °C 30in /  1016.8hPa North 6.3mph /  10.1km/h 6.5mph /  10.5km/h 83% 0in /  0.0mm
04:04 54.3 °F /  12.4 °C 50 °F /  10.0 °C 30in /  1016.8hPa North 4.3mph /  6.9km/h 6.3mph /  10.1km/h 84% 0in /  0.0mm
04:10 54.5 °F /  12.5 °C 50 °F /  10.0 °C 30in /  1016.1hPa Calm   6mph /  9.7km/h 84% 0in /  0.0mm
04:19 54.7 °F /  12.6 °C 50 °F /  10.0 °C 30in /  1016.1hPa North 2.9mph /  4.7km/h 6.3mph /  10.1km/h 84% 0in /  0.0mm
04:29 54.7 °F /  12.6 °C 50 °F /  10.0 °C 30in /  1016.1hPa NE 4mph /  6.4km/h 6.3mph /  10.1km/h 84% 0in /  0.0mm
04:39 54.9 °F /  12.7 °C 50 °F /  10.0 °C 30in /  1015.1hPa North 0.9mph /  1.4km/h 5.8mph /  9.3km/h 84% 0in /  0.0mm
04:49 54.9 °F /  12.7 °C 50 °F /  10.0 °C 30in /  1015.1hPa North 3.6mph /  5.8km/h 5.6mph /  9.0km/h 83% 0in /  0.0mm
05:04 54.9 °F /  12.7 °C 50 °F /  10.0 °C 30in /  1015.1hPa North 5.4mph /  8.7km/h 5.6mph /  9.0km/h 83% 0in /  0.0mm
05:09 55 °F /  12.8 °C 51.8 °F /  11.0 °C 30in /  1015.1hPa NNW 1.6mph /  2.6km/h 6mph /  9.7km/h 84% 0in /  0.0mm
05:19 55.2 °F /  12.9 °C 51.8 °F /  11.0 °C 30in /  1015.1hPa NNW 1.3mph /  2.1km/h 5.4mph /  8.7km/h 84% 0in /  0.0mm
05:29 55.4 °F /  13.0 °C 50 °F /  10.0 °C 30in /  1015.1hPa Calm   4.3mph /  6.9km/h 83% 0in /  0.0mm
05:34 55.4 °F /  13.0 °C 50 °F /  10.0 °C 30in /  1015.1hPa Calm   3.8mph /  6.1km/h 83% 0in /  0.0mm
05:39 55.4 °F /  13.0 °C 50 °F /  10.0 °C 30in /  1015.1hPa Calm   2.7mph /  4.3km/h 83% 0in /  0.0mm
05:49 55.4 °F /  13.0 °C 50 °F /  10.0 °C 30in /  1015.1hPa North 2.5mph /  4.0km/h 2.5mph /  4.0km/h 83% 0in /  0.0mm
05:59 55.4 °F /  13.0 °C 50 °F /  10.0 °C 30in /  1015.1hPa Calm   4.7mph /  7.6km/h 83% 0in /  0.0mm
06:09 55.2 °F /  12.9 °C 50 °F /  10.0 °C 30in /  1015.1hPa NNE 3.1mph /  5.0km/h 4.3mph /  6.9km/h 83% 0in /  0.0mm
06:14 55.4 °F /  13.0 °C 50 °F /  10.0 °C 30in /  1015.1hPa North 2.2mph /  3.5km/h 4.3mph /  6.9km/h 83% 0in /  0.0mm
06:19 55.4 °F /  13.0 °C 50 °F /  10.0 °C 30in /  1015.1hPa Calm   4.3mph /  6.9km/h 83% 0in /  0.0mm
06:29 55.4 °F /  13.0 °C 50 °F /  10.0 °C 30in /  1015.1hPa Calm   2.9mph /  4.7km/h 83% 0in /  0.0mm
06:39 55.6 °F /  13.1 °C 50 °F /  10.0 °C 30in /  1015.1hPa Calm   2mph /  3.2km/h 83% 0in /  0.0mm
06:44 55.6 °F /  13.1 °C 50 °F /  10.0 °C 30in /  1015.1hPa North 1.1mph /  1.8km/h 1.1mph /  1.8km/h 83% 0in /  0.0mm
06:49 55.8 °F /  13.2 °C 51.8 °F /  11.0 °C 30in /  1015.1hPa Calm   1.6mph /  2.6km/h 83% 0in /  0.0mm
06:59 55.8 °F /  13.2 °C 51.8 °F /  11.0 °C 30in /  1015.1hPa Calm     83% 0in /  0.0mm
07:09 55.9 °F /  13.3 °C 51.8 °F /  11.0 °C 30in /  1015.1hPa Calm     83% 0in /  0.0mm
07:19 56.1 °F /  13.4 °C 51.8 °F /  11.0 °C 30in /  1015.1hPa Calm     83% 0in /  0.0mm
07:24 56.3 °F /  13.5 °C 51.8 °F /  11.0 °C 30in /  1015.1hPa Calm     83% 0in /  0.0mm
07:29 56.3 °F /  13.5 °C 51.8 °F /  11.0 °C 30in /  1015.1hPa Calm     83% 0in /  0.0mm
07:39 56.3 °F /  13.5 °C 51.8 °F /  11.0 °C 30in /  1016.1hPa NNE 1.6mph /  2.6km/h 2.9mph /  4.7km/h 82% 0in /  0.0mm
07:44 56.3 °F /  13.5 °C 51.8 °F /  11.0 °C 30in /  1016.1hPa Calm   2mph /  3.2km/h 82% 0in /  0.0mm
07:49 56.3 °F /  13.5 °C 51.8 °F /  11.0 °C 30in /  1016.1hPa Calm   1.6mph /  2.6km/h 82% 0in /  0.0mm
07:59 56.5 °F /  13.6 °C 51.8 °F /  11.0 °C 30in /  1015.1hPa Calm     83% 0in /  0.0mm
08:04 56.5 °F /  13.6 °C 51.8 °F /  11.0 °C 30in /  1015.1hPa Calm     83% 0in /  0.0mm
08:09 56.7 °F /  13.7 °C 51.8 °F /  11.0 °C 29.9in /  1014.1hPa Calm     83% 0in /  0.0mm
08:19 57 °F /  13.9 °C 53.6 °F /  12.0 °C 29.9in /  1014.1hPa Calm     84% 0in /  0.0mm
08:24 57.2 °F /  14.0 °C 51.8 °F /  11.0 °C 30in /  1015.1hPa Calm     83% 0in /  0.0mm
08:29 57.4 °F /  14.1 °C 51.8 °F /  11.0 °C 30in /  1015.1hPa Calm     83% 0in /  0.0mm
08:39 57.9 °F /  14.4 °C 53.6 °F /  12.0 °C 30in /  1015.1hPa NNW 3.1mph /  5.0km/h 3.1mph /  5.0km/h 83% 0in /  0.0mm
08:44 58.3 °F /  14.6 °C 53.6 °F /  12.0 °C 30in /  1015.1hPa Calm   3.4mph /  5.5km/h 83% 0in /  0.0mm
08:49 58.8 °F /  14.9 °C 53.6 °F /  12.0 °C 30in /  1015.1hPa Calm   3.4mph /  5.5km/h 82% 0in /  0.0mm
08:59 60.3 °F /  15.7 °C 55.4 °F /  13.0 °C 30in /  1015.1hPa NNE 4.3mph /  6.9km/h 5.4mph /  8.7km/h 81% 0in /  0.0mm
09:04 61.2 °F /  16.2 °C 55.4 °F /  13.0 °C 30in /  1015.1hPa NNE 5.8mph /  9.3km/h 5.8mph /  9.3km/h 81% 0in /  0.0mm
09:09 61.9 °F /  16.6 °C 55.4 °F /  13.0 °C 30in /  1016.1hPa Calm   6mph /  9.7km/h 80% 0in /  0.0mm
09:19 63.9 °F /  17.7 °C 57.2 °F /  14.0 °C 30in /  1016.1hPa NNE 3.4mph /  5.5km/h 6.3mph /  10.1km/h 78% 0in /  0.0mm
09:29 65.1 °F /  18.4 °C 57.2 °F /  14.0 °C 30in /  1015.1hPa Calm   5.8mph /  9.3km/h 74% 0in /  0.0mm
09:34 66 °F /  18.9 °C 57.2 °F /  14.0 °C 30in /  1015.1hPa NNW 3.1mph /  5.0km/h 5.8mph /  9.3km/h 73% 0in /  0.0mm
09:39 66.9 °F /  19.4 °C 57.2 °F /  14.0 °C 30in /  1015.1hPa North 4mph /  6.4km/h 6mph /  9.7km/h 70% 0in /  0.0mm
09:49 68 °F /  20.0 °C 57.2 °F /  14.0 °C 30in /  1015.1hPa North 3.8mph /  6.1km/h 6.5mph /  10.5km/h 67% 0in /  0.0mm
09:54 68.5 °F /  20.3 °C 55.4 °F /  13.0 °C 29.9in /  1014.1hPa NNE 5.6mph /  9.0km/h 7.8mph /  12.6km/h 64% 0in /  0.0mm
09:59 69.3 °F /  20.7 °C 55.4 °F /  13.0 °C 29.9in /  1014.1hPa NNE 5.6mph /  9.0km/h 8.1mph /  13.0km/h 61% 0in /  0.0mm
10:09 70 °F /  21.1 °C 55.4 °F /  13.0 °C 29.9in /  1014.1hPa NNE 5.8mph /  9.3km/h 9.8mph /  15.8km/h 58% 0in /  0.0mm
10:14 70.2 °F /  21.2 °C 55.4 °F /  13.0 °C 29.9in /  1014.1hPa NE 5.8mph /  9.3km/h 9.8mph /  15.8km/h 59% 0in /  0.0mm
10:19 70.7 °F /  21.5 °C 55.4 °F /  13.0 °C 29.9in /  1014.1hPa NNE 8.5mph /  13.7km/h 8.5mph /  13.7km/h 56% 0in /  0.0mm
10:29 69.1 °F /  20.6 °C 53.6 °F /  12.0 °C 29.9in /  1014.1hPa NE 3.8mph /  6.1km/h 9.8mph /  15.8km/h 56% 0in /  0.0mm
10:39 69.8 °F /  21.0 °C 53.6 °F /  12.0 °C 29.9in /  1014.1hPa North 6.5mph /  10.5km/h 7.4mph /  11.9km/h 56% 0in /  0.0mm
10:44 70.2 °F /  21.2 °C 55.4 °F /  13.0 °C 29.9in /  1014.1hPa NE 4.9mph /  7.9km/h 7.4mph /  11.9km/h 57% 0in /  0.0mm
10:49 69.4 °F /  20.8 °C 53.6 °F /  12.0 °C 29.9in /  1014.1hPa NNE 6.5mph /  10.5km/h 8.5mph /  13.7km/h 56% 0in /  0.0mm
10:59 69.3 °F /  20.7 °C 53.6 °F /  12.0 °C 29.9in /  1014.1hPa NNE 6mph /  9.7km/h 8.5mph /  13.7km/h 56% 0in /  0.0mm
11:04 69.1 °F /  20.6 °C 53.6 °F /  12.0 °C 29.9in /  1014.1hPa NE 7.8mph /  12.6km/h 8.5mph /  13.7km/h 56% 0in /  0.0mm
11:09 69.8 °F /  21.0 °C 53.6 °F /  12.0 °C 29.9in /  1014.1hPa NNE 5.4mph /  8.7km/h 8.7mph /  14.0km/h 56% 0in /  0.0mm
11:19 71.4 °F /  21.9 °C 55.4 °F /  13.0 °C 29.9in /  1014.1hPa ENE 2.7mph /  4.3km/h 8.1mph /  13.0km/h 56% 0in /  0.0mm
11:24 71.1 °F /  21.7 °C 55.4 °F /  13.0 °C 29.9in /  1014.1hPa NNE 6.5mph /  10.5km/h 8.1mph /  13.0km/h 56% 0in /  0.0mm
11:29 70.5 °F /  21.4 °C 53.6 °F /  12.0 °C 29.9in /  1014.1hPa NE 4mph /  6.4km/h 7.4mph /  11.9km/h 55% 0in /  0.0mm
11:39 72 °F /  22.2 °C 55.4 °F /  13.0 °C 29.9in /  1014.1hPa NNE 6.7mph /  10.8km/h 9.4mph /  15.1km/h 55% 0in /  0.0mm
11:44 72.5 °F /  22.5 °C 55.4 °F /  13.0 °C 29.9in /  1014.1hPa East 3.8mph /  6.1km/h 7.8mph /  12.6km/h 54% 0in /  0.0mm
11:49 71.6 °F /  22.0 °C 53.6 °F /  12.0 °C 29.9in /  1014.1hPa NE 2.9mph /  4.7km/h 8.5mph /  13.7km/h 53% 0in /  0.0mm
11:59 70.7 °F /  21.5 °C 53.6 °F /  12.0 °C 29.9in /  1014.1hPa NNE 8.1mph /  13.0km/h 9.8mph /  15.8km/h 53% 0in /  0.0mm
12:04 72.3 °F /  22.4 °C 55.4 °F /  13.0 °C 29.9in /  1014.1hPa East 3.4mph /  5.5km/h 10.3mph /  16.6km/h 53% 0in /  0.0mm
12:09 73 °F /  22.8 °C 55.4 °F /  13.0 °C 29.9in /  1013.1hPa SSE 2mph /  3.2km/h 10.3mph /  16.6km/h 52% 0in /  0.0mm
12:19 73 °F /  22.8 °C 55.4 °F /  13.0 °C 29.9in /  1013.1hPa NNE 6.5mph /  10.5km/h 8.5mph /  13.7km/h 52% 0in /  0.0mm
12:24 72 °F /  22.2 °C 53.6 °F /  12.0 °C 29.9in /  1013.1hPa NE 4.9mph /  7.9km/h 12.3mph /  19.8km/h 51% 0in /  0.0mm
12:29 72 °F /  22.2 °C 53.6 °F /  12.0 °C 29.9in /  1013.1hPa ENE 8.7mph /  14.0km/h 12.3mph /  19.8km/h 52% 0in /  0.0mm
12:39 72.1 °F /  22.3 °C 51.8 °F /  11.0 °C 29.9in /  1013.1hPa NE 8.7mph /  14.0km/h 12.8mph /  20.6km/h 49% 0in /  0.0mm
12:44 72 °F /  22.2 °C 51.8 °F /  11.0 °C 29.9in /  1013.1hPa NE 8.5mph /  13.7km/h 12.8mph /  20.6km/h 49% 0in /  0.0mm
12:49 72 °F /  22.2 °C 53.6 °F /  12.0 °C 29.9in /  1013.1hPa NE 10.1mph /  16.3km/h 10.5mph /  16.9km/h 50% 0in /  0.0mm
12:59 73.8 °F /  23.2 °C 53.6 °F /  12.0 °C 29.9in /  1013.1hPa NNE 7.4mph /  11.9km/h 10.1mph /  16.3km/h 49% 0in /  0.0mm
13:04 74.8 °F /  23.8 °C 53.6 °F /  12.0 °C 29.9in /  1013.1hPa East 5.6mph /  9.0km/h 10.3mph /  16.6km/h 48% 0in /  0.0mm
13:09 74.1 °F /  23.4 °C 53.6 °F /  12.0 °C 29.9in /  1012.1hPa NE 6.5mph /  10.5km/h 10.3mph /  16.6km/h 47% 0in /  0.0mm
13:19 72.7 °F /  22.6 °C 53.6 °F /  12.0 °C 29.9in /  1012.1hPa East 9.8mph /  15.8km/h 9.8mph /  15.8km/h 49% 0in /  0.0mm
13:29 72.7 °F /  22.6 °C 53.6 °F /  12.0 °C 29.9in /  1013.1hPa East 8.1mph /  13.0km/h 10.7mph /  17.2km/h 50% 0in /  0.0mm
13:39 73.9 °F /  23.3 °C 55.4 °F /  13.0 °C 29.9in /  1013.1hPa NNE 8.7mph /  14.0km/h 9.6mph /  15.4km/h 51% 0in /  0.0mm
13:44 75.2 °F /  24.0 °C 55.4 °F /  13.0 °C 29.9in /  1013.1hPa NE 1.3mph /  2.1km/h 8.7mph /  14.0km/h 49% 0in /  0.0mm
13:49 75.2 °F /  24.0 °C 55.4 °F /  13.0 °C 29.9in /  1013.1hPa NNW 8.5mph /  13.7km/h 8.9mph /  14.3km/h 48% 0in /  0.0mm
13:59 75 °F /  23.9 °C 53.6 °F /  12.0 °C 29.9in /  1013.1hPa NE 9.8mph /  15.8km/h 10.7mph /  17.2km/h 47% 0in /  0.0mm
14:04 75.6 °F /  24.2 °C 55.4 °F /  13.0 °C 29.9in /  1013.1hPa North 8.1mph /  13.0km/h 10.7mph /  17.2km/h 48% 0in /  0.0mm
14:09 75.4 °F /  24.1 °C 53.6 °F /  12.0 °C 29.9in /  1013.1hPa NNE 8.1mph /  13.0km/h 11mph /  17.7km/h 47% 0in /  0.0mm
14:19 75.4 °F /  24.1 °C 53.6 °F /  12.0 °C 29.9in /  1013.1hPa North 11.2mph /  18.0km/h 12.5mph /  20.1km/h 47% 0in /  0.0mm
14:29 75.2 °F /  24.0 °C 55.4 °F /  13.0 °C 29.9in /  1013.1hPa NNE 5.6mph /  9.0km/h 14.1mph /  22.7km/h 48% 0in /  0.0mm
14:39 75.9 °F /  24.4 °C 55.4 °F /  13.0 °C 29.9in /  1013.1hPa NNE 5.6mph /  9.0km/h 9.6mph /  15.4km/h 48% 0in /  0.0mm
14:44 75.7 °F /  24.3 °C 55.4 °F /  13.0 °C 29.9in /  1013.1hPa NNE 8.7mph /  14.0km/h 9.8mph /  15.8km/h 48% 0in /  0.0mm
14:49 75.7 °F /  24.3 °C 55.4 °F /  13.0 °C 29.9in /  1013.1hPa NE 7.4mph /  11.9km/h 13.2mph /  21.2km/h 48% 0in /  0.0mm
14:59 76.8 °F /  24.9 °C 55.4 °F /  13.0 °C 29.9in /  1013.1hPa NNE 3.4mph /  5.5km/h 8.5mph /  13.7km/h 48% 0in /  0.0mm
15:04 77.4 °F /  25.2 °C 55.4 °F /  13.0 °C 29.9in /  1013.1hPa North 8.1mph /  13.0km/h 8.1mph /  13.0km/h 47% 0in /  0.0mm
15:09 77.4 °F /  25.2 °C 53.6 °F /  12.0 °C 29.9in /  1013.1hPa North 6.5mph /  10.5km/h 10.3mph /  16.6km/h 43% 0in /  0.0mm
15:19 77.4 °F /  25.2 °C 53.6 °F /  12.0 °C 29.9in /  1013.1hPa East 7.2mph /  11.6km/h 10.5mph /  16.9km/h 43% 0in /  0.0mm
15:24 77.4 °F /  25.2 °C 53.6 °F /  12.0 °C 29.9in /  1013.1hPa NNE 8.5mph /  13.7km/h 12.1mph /  19.5km/h 42% 0in /  0.0mm
15:29 76.5 °F /  24.7 °C 51.8 °F /  11.0 °C 29.9in /  1013.1hPa NE 6mph /  9.7km/h 12.1mph /  19.5km/h 43% 0in /  0.0mm
15:39 75.9 °F /  24.4 °C 51.8 °F /  11.0 °C 29.9in /  1013.1hPa North 5.8mph /  9.3km/h 10.3mph /  16.6km/h 43% 0in /  0.0mm
15:44 75.6 °F /  24.2 °C 53.6 °F /  12.0 °C 29.9in /  1013.1hPa NNE 2.9mph /  4.7km/h 10.3mph /  16.6km/h 44% 0in /  0.0mm
15:49 77 °F /  25.0 °C 53.6 °F /  12.0 °C 29.9in /  1013.1hPa NNE 5.8mph /  9.3km/h 7.8mph /  12.6km/h 44% 0in /  0.0mm
15:59 75.9 °F /  24.4 °C 51.8 °F /  11.0 °C 29.9in /  1012.1hPa NE 4.3mph /  6.9km/h 10.3mph /  16.6km/h 43% 0in /  0.0mm
16:04 74.8 °F /  23.8 °C 51.8 °F /  11.0 °C 29.9in /  1012.1hPa NE 5.6mph /  9.0km/h 10.3mph /  16.6km/h 44% 0in /  0.0mm
16:09 76.1 °F /  24.5 °C 53.6 °F /  12.0 °C 29.9in /  1012.1hPa NE 5.8mph /  9.3km/h 8.7mph /  14.0km/h 45% 0in /  0.0mm
16:19 77.2 °F /  25.1 °C 53.6 °F /  12.0 °C 29.9in /  1012.1hPa NNE 8.1mph /  13.0km/h 8.9mph /  14.3km/h 44% 0in /  0.0mm
16:24 77.7 °F /  25.4 °C 55.4 °F /  13.0 °C 29.9in /  1012.1hPa NNE 8.7mph /  14.0km/h 10.5mph /  16.9km/h 44% 0in /  0.0mm
16:29 77.5 °F /  25.3 °C 53.6 °F /  12.0 °C 29.9in /  1012.1hPa NNW 4mph /  6.4km/h 10.5mph /  16.9km/h 43% 0in /  0.0mm
16:39 78.4 °F /  25.8 °C 55.4 °F /  13.0 °C 29.9in /  1011.1hPa ENE 3.8mph /  6.1km/h 8.7mph /  14.0km/h 44% 0in /  0.0mm
Données Historique de Météo Turbie

Mise a jour : 21/05/2018 16:38:12
Généré par Cumulus 1.9.4 (1099)